Tiempo atmosférico en la estación meteorológica de Astorga, León (919 m.)



Fecha
DESCASC
Temp. máxima en grados centígrados (hora)
DESCASC
Temp. mínima en grados centígrados (hora)
DESCASC
Temp. media en grados centígrados
DESCASC
Racha de viento máxima en m/sg (hora)
DESCASC
Velocidad máxima media en intervalos de 10 minutos(hora)
DESCASC
Precipitaciones diarias en mm
DESCASC
Precipitaciones de 00:00 a 06:00 en mm
DESCASC
Precipitaciones de 06:00 a 12:00 en mm
DESCASC
Precipitaciones de 12:00 a 18:00 en mm
DESCASC
Precipitaciones de 18:00 a 24:00 en mm
DESCASC
20-05-2018 23.3 (16:50) 7.1 (07:20) 15.2 7.22 (16:30) 4.44 (18:50) 0 0 0 0 0
19-05-2018 24.7 (17:30) 6.1 (07:00) 15.4 8.33 (20:20) 4.72 (20:10) 0 0 0 0 0
18-05-2018 23.1 (19:00) 5.7 (00:00) 14.4 9.17 (19:30) 6.94 (19:30) 0.2 0 0 0 0.2
17-05-2018 21.8 (15:20) 5.4 (00:00) 13.6 15.83 (16:20) 10 (16:20) 3.8 0 0 1.8 2
16-05-2018 23.3 (18:40) 2.5 (00:00) 12.9 7.5 (18:50) 4.17 (20:00) 0 0 0 0 0
15-05-2018 22.7 (17:30) -0.7 (-00:0) 11 7.22 (21:00) 4.44 (21:00) 0 0 0 0 0
14-05-2018 19.3 (16:30) 6.5 (00:00) 12.9 10.28 (20:50) 7.22 (20:50) 1.2 0 1 0.2 0
13-05-2018 12.6 (17:50) 1.9 (00:00) 7.3 10 (17:40) 5.83 (15:20) 0 0 0 0 0
12-05-2018 12.6 (16:30) 3.7 (00:00) 8.2 14.17 (15:30) 7.5 (13:00) 0 0 0 0 0
11-05-2018 21.9 (17:20) 2.1 (07:20) 12 9.17 (22:30) 5.83 (22:30) 0 0 0 0 0
10-05-2018 19.6 (17:30) 3.8 (00:00) 11.7 8.33 (18:20) 5.83 (20:50) 0 0 0 0 0
09-05-2018 24.1 (15:40) 6.2 (00:00) 15.2 11.11 (18:00) 7.22 (18:10) 0 0 0 0 0
08-05-2018 26.6 (16:00) 9 (00:00) 17.8 10 (18:30) 6.67 (19:00) 0 0 0 0 0
07-05-2018 26.5 (16:30) 7.9 (00:00) 17.2 7.5 (18:40) 5 (18:40) 0 0 0 0 0
06-05-2018 25.3 (19:20) 7.8 (00:00) 16.5 6.67 (14:20) 3.89 (16:40) 0 0 0 0 0
05-05-2018 21.5 (17:30) 2 (00:00) 11.8 8.33 (18:40) 5 (20:10) 0 0 0 0 0
04-05-2018 19.7 (17:50) -1.1 (-00:0) 9.3 7.5 (15:50) 4.72 (20:10) 0 0 0 0 0
03-05-2018 17.2 (16:20) 4.9 (00:00) 11.1 12.5 (18:30) 8.61 (17:40) 0 0 0 0 0
02-05-2018 13.7 (17:50) 3.9 (00:00) 8.8 10 (16:50) 6.11 (18:40) 0.4 0 0 0.4 0
01-05-2018 13.4 (17:50) -2 (06:40) 5.7 8.89 (14:10) 5.56 (15:50) 0 0 0 0 0
30-04-2018 13.2 (16:30) 0.4 (00:00) 6.8 11.11 (16:30) 6.94 (18:40) 0 0 0 0 0
29-04-2018 9.9 (17:30) 1.7 (00:00) 5.8 12.22 (16:30) 6.67 (17:40) 4.4 0 0.2 4 0.2
28-04-2018 12.2 (12:30) 4.3 (00:00) 8.3 11.11 (14:10) 8.33 (14:10) 3.6 0 0 2 1.6
27-04-2018 17.6 (15:50) 7.3 (00:00) 12.5 11.11 (15:30) 6.94 (18:00) 0 0 0 0 0
26-04-2018 21.4 (18:20) 5.8 (00:00) 13.6 7.5 (16:40) 3.89 (18:10) 0 0 0 0 0
25-04-2018 27.2 (17:10) 10.2 (00:00) 18.7 13.06 (16:10) 6.39 (18:10) 0 0 0 0 0
24-04-2018 26.2 (18:30) 6.8 (00:00) 16.5 6.39 (16:40) 4.17 (23:30) 0 0 0 0 0
23-04-2018 24.5 (17:00) 6.6 (00:00) 15.5 8.61 (19:00) 5.83 (19:00) 0 0 0 0 0
22-04-2018 20.1 (15:50) 6.8 (00:00) 13.5 6.94 (17:10) 5 (17:50) 0 0 0 0 0

Gráficas

Temp. máximas Temp. mínimas Temp. medias Precipitaciones Rachas de viento máximas Velocidades máximas media en intervalos de 10 minutos

Datos horarios

Fecha y hora oficial Temperatura (ºC) Velocidad del viento (km/h) Dirección del viento Racha (km/h) Dirección de racha Precipitación (mm) Presión (hPa) Tendencia (hPa) Humedad (%)
2018-05-21 23:00:00 15.2 12 Noroeste 17 Noroeste 0 -- -- 62
2018-05-21 22:00:00 14.9 9 Noroeste 13 Noroeste 0 -- -- 64
2018-05-21 21:00:00 16.9 4 Norte 22 Norte 0 -- -- 59
2018-05-21 20:00:00 18 19 Norte 29 Norte 0 -- -- 54
2018-05-21 19:00:00 18.6 22 Norte 34 Noroeste 0 -- -- 52
2018-05-21 18:00:00 19.8 17 Noroeste 32 Oeste 0 -- -- 45
2018-05-21 17:00:00 22.1 15 Oeste 35 Oeste 0 -- -- 37
2018-05-21 16:00:00 21.3 8 Oeste 17 Oeste 0 -- -- 36
2018-05-21 15:00:00 17.2 12 Oeste 31 Oeste 0 -- -- 57
2018-05-21 14:00:00 21.8 9 Sur 26 Sudoeste 0 -- -- 38
2018-05-21 13:00:00 20.3 13 Sur 22 Sur 0 -- -- 49
2018-05-21 12:00:00 19.2 6 Sur 15 Sur 0 -- -- 52
2018-05-21 11:00:00 17.5 5 Sur 12 Sur 0 -- -- 56
2018-05-21 10:00:00 17.1 4 Este 8 Sudeste 0 -- -- 57
2018-05-21 09:00:00 14.6 2 Nordeste 5 Norte 0 -- -- 63
2018-05-21 08:00:00 8.5 0 Calma 5 Noroeste 0 -- -- 82
2018-05-21 07:00:00 8.1 0 Calma 9 Noroeste 0 -- -- 81
2018-05-21 06:00:00 8.8 8 Noroeste 11 Norte 0 -- -- 80
2018-05-21 05:00:00 9.7 10 Norte 13 Norte 0 -- -- 76
2018-05-21 04:00:00 10 9 Norte 15 Norte 0 -- -- 74
2018-05-21 03:00:00 10.8 11 Norte 26 Nordeste 0 -- -- 70
2018-05-21 02:00:00 11.8 14 Nordeste 22 Nordeste 0 -- -- 68
2018-05-21 01:00:00 10.7 13 Norte 22 Nordeste 0 -- -- 58
2018-05-21 00:00:00 14.9 0 Calma 6 Norte 0 -- -- 37
2018-05-20 23:00:00 16.8 4 Sudoeste 8 Sudoeste 0 -- -- 33
2018-05-20 22:00:00 17.1 4 Sudoeste 13 Sudeste 0 -- -- 33
2018-05-20 21:00:00 19.9 10 Sudeste 15 Sudeste 0 -- -- 26
2018-05-20 20:00:00 22.4 10 Sudeste 21 Sur 0 -- -- 22
2018-05-20 19:00:00 22.6 13 Sur 24 Sur 0 -- -- 21
2018-05-20 18:00:00 22.7 15 Sur 26 Sur 0 -- -- 24
2018-05-20 17:00:00 22.9 14 Sur 26 Sur 0 -- -- 28
2018-05-20 16:00:00 22.1 10 Este 22 Sur 0 -- -- 27
2018-05-20 15:00:00 20.8 12 Sur 23 Sur 0 -- -- 31
2018-05-20 14:00:00 20 7 Sudeste 23 Sudeste 0 -- -- 31
2018-05-20 13:00:00 18.9 9 Sur 20 Sudeste 0 -- -- 40
2018-05-20 12:00:00 18.2 7 Sudeste 18 Sur 0 -- -- 39
2018-05-20 11:00:00 16.6 5 Sur 12 Sur 0 -- -- 43
2018-05-20 10:00:00 14.7 5 Sudoeste 11 Sudoeste 0 -- -- 53
2018-05-20 09:00:00 12.4 0 Calma 5 Nordeste 0 -- -- 72
2018-05-20 08:00:00 7.9 3 Noroeste 5 Norte 0 -- -- 87
2018-05-20 07:00:00 8.4 2 Norte 7 Norte 0 -- -- 84
2018-05-20 06:00:00 7.7 2 Sudeste 6 Nordeste 0 -- -- 88
2018-05-20 05:00:00 8.1 5 Norte 9 Oeste 0 -- -- 83
2018-05-20 04:00:00 9.6 3 Sudoeste 8 Oeste 0 -- -- 79
2018-05-20 03:00:00 10.7 2 Sudoeste 6 Sudoeste 0 -- -- 73
2018-05-20 02:00:00 12.2 0 Calma 6 Noroeste 0 -- -- 62
2018-05-20 01:00:00 11.7 3 Este 6 Sudeste 0 -- -- 74
2018-05-20 00:00:00 13.6 5 Norte 15 Norte 0 -- -- 68
2018-05-19 23:00:00 14.3 10 Norte 15 Norte 0 -- -- 65
2018-05-19 22:00:00 16.1 7 Norte 13 Este 0 -- -- 57
2018-05-19 21:00:00 17.8 0 Calma 30 Norte 0 -- -- 49
2018-05-19 20:00:00 20.4 13 Noroeste 24 Noroeste 0 -- -- 43
2018-05-19 19:00:00 22.1 6 Sudoeste 20 Sur 0 -- -- 33
2018-05-19 18:00:00 23.9 10 Sur 22 Sudeste 0 -- -- 28
2018-05-19 17:00:00 24.3 9 Este 22 Sudeste 0 -- -- 31
2018-05-19 16:00:00 23.6 6 Nordeste 20 Sudeste 0 -- -- 29
2018-05-19 15:00:00 22.6 5 Norte 15 Noroeste 0 -- -- 40
2018-05-19 14:00:00 20.9 5 Sudoeste 15 Nordeste 0 -- -- 45
2018-05-19 13:00:00 20 9 Este 22 Nordeste 0 -- -- 50
2018-05-19 12:00:00 19.5 5 Nordeste 17 Este 0 -- -- 52
2018-05-19 11:00:00 18.1 5 Este 13 Este 0 -- -- 55
2018-05-19 10:00:00 15.8 4 Sudeste 8 Sur 0 -- -- 59
2018-05-19 09:00:00 13.7 3 Sudoeste 10 Norte 0 -- -- 72
2018-05-19 08:00:00 7.7 7 Norte 10 Norte 0 -- -- 93
2018-05-19 07:00:00 6.1 6 Norte 7 Norte 0 -- -- 93
2018-05-19 06:00:00 10.2 9 Oeste 14 Oeste 0 -- -- 82
2018-05-19 05:00:00 8.1 4 Norte 9 Oeste 0 -- -- 90
2018-05-19 04:00:00 10.5 7 Oeste 10 Oeste 0 -- -- 87
2018-05-19 03:00:00 11 3 Noroeste 8 Sudoeste 0 -- -- 86
2018-05-19 02:00:00 11.3 0 Calma 10 Este 0 -- -- 87
2018-05-19 01:00:00 11.2 6 Norte 13 Norte 0 -- -- 88
2018-05-19 00:00:00 11.6 9 Norte 13 Norte 0 -- -- 86
2018-05-18 23:00:00 13.3 6 Noroeste 17 Oeste 0 -- -- 78
2018-05-18 22:00:00 14.2 11 Oeste 24 Sudoeste 0 -- -- 74
2018-05-18 21:00:00 14.5 15 Norte 32 Nordeste 0.2 -- -- 76
2018-05-18 20:00:00 16.1 18 Norte 33 Norte 0 -- -- 63
2018-05-18 19:00:00 23.1 7 Sudeste 25 Sur 0 -- -- 39
2018-05-18 18:00:00 22.1 14 Sur 27 Sur 0 -- -- 41
2018-05-18 17:00:00 19.9 15 Sur 29 Sur 0 -- -- 50
2018-05-18 16:00:00 21.3 14 Sur 23 Sur 0 -- -- 44
2018-05-18 15:00:00 18.7 10 Sudeste 25 Sur 0 -- -- 53
2018-05-18 14:00:00 18.8 10 Sudeste 28 Sudeste 0 -- -- 55
2018-05-18 13:00:00 17.9 9 Sur 22 Sudeste 0 -- -- 53
2018-05-18 12:00:00 17.7 9 Sudeste 18 Este 0 -- -- 52
2018-05-18 11:00:00 16.3 6 Este 14 Este 0 -- -- 56
2018-05-18 10:00:00 14.8 6 Nordeste 14 Norte 0 -- -- 64
2018-05-18 09:00:00 11 13 Norte 15 Norte 0 -- -- 80
2018-05-18 08:00:00 7.7 6 Norte 9 Norte 0 -- -- 94
2018-05-18 07:00:00 6.4 3 Oeste 9 Noroeste 0 -- -- 95
2018-05-18 06:00:00 7.4 8 Noroeste 12 Noroeste 0 -- -- 95
2018-05-18 05:00:00 8.1 2 Sudoeste 6 Norte 0 -- -- 93
2018-05-18 04:00:00 8.6 0 Calma 10 Norte 0 -- -- 88
2018-05-18 03:00:00 9.3 5 Norte 8 Norte 0 -- -- 87
2018-05-18 02:00:00 9 7 Norte 9 Norte 0 -- -- 90
2018-05-18 01:00:00 10.9 0 Calma 6 Sudeste 0 -- -- 84
2018-05-18 00:00:00 11.2 6 Sudeste 13 Sudeste 0 -- -- 81
2018-05-17 23:00:00 11.9 2 Este 12 Norte 0 -- -- 71
2018-05-17 22:00:00 11.1 9 Norte 16 Norte 0 -- -- 81
2018-05-17 21:00:00 11.4 10 Norte 15 Noroeste 0 -- -- 83
2018-05-17 20:00:00 11.7 6 Norte 14 Norte 0 -- -- 84
2018-05-17 19:00:00 12 5 Oeste 26 Sur 2 -- -- 64
2018-05-17 18:00:00 10.9 18 Oeste 29 Noroeste 1.6 -- -- 80
2018-05-17 17:00:00 12.7 10 Oeste 57 Norte 0.2 -- -- 69
2018-05-17 16:00:00 20.9 11 Nordeste 26 Sudoeste 0 -- -- 35
2018-05-17 15:00:00 21.5 9 Sudeste 24 Sudeste 0 -- -- 38
2018-05-17 14:00:00 20.4 12 Sudeste 18 Sudeste 0 -- -- 40
2018-05-17 13:00:00 20 7 Sudeste 18 Sudeste 0 -- -- 41
2018-05-17 12:00:00 19.3 6 Sudeste 22 Sudeste 0 -- -- 42
2018-05-17 11:00:00 18.1 6 Sudeste 13 Este 0 -- -- 45
2018-05-17 10:00:00 16.9 5 Oeste 10 Sudeste 0 -- -- 48
2018-05-17 09:00:00 13.9 4 Sudoeste 8 Oeste 0 -- -- 62
2018-05-17 08:00:00 10.1 4 Norte 12 Norte 0 -- -- 74
2018-05-17 07:00:00 6.4 11 Norte 14 Norte 0 -- -- 87
2018-05-17 06:00:00 5.4 8 Norte 11 Oeste 0 -- -- 87
2018-05-17 05:00:00 8.9 6 Oeste 10 Oeste 0 -- -- 78
2018-05-17 04:00:00 8.3 2 Nordeste 8 Sudoeste 0 -- -- 78
2018-05-17 03:00:00 10.2 5 Sudoeste 12 Oeste 0 -- -- 71
2018-05-17 02:00:00 12 8 Sudoeste 12 Sudoeste 0 -- -- 65
2018-05-17 01:00:00 12.3 3 Sudoeste 8 Sudeste 0 -- -- 62
2018-05-17 00:00:00 13.7 5 Sudeste 16 Sudeste 0 -- -- 58
2018-05-16 23:00:00 15.4 8 Sudeste 14 Este 0 -- -- 52
2018-05-16 22:00:00 17 7 Sudeste 17 Sur 0 -- -- 48
2018-05-16 21:00:00 19.7 10 Sudeste 19 Sur 0 -- -- 41
2018-05-16 20:00:00 21.6 15 Sur 23 Sudeste 0 -- -- 36
2018-05-16 19:00:00 22.5 12 Sudeste 27 Sur 0 -- -- 35
2018-05-16 18:00:00 22.8 6 Sur 21 Sudeste 0 -- -- 32
2018-05-16 17:00:00 22.6 10 Sudeste 23 Sur 0 -- -- 32
2018-05-16 16:00:00 21.2 9 Sur 24 Sudeste 0 -- -- 33
2018-05-16 15:00:00 20.3 7 Sur 23 Este 0 -- -- 34
2018-05-16 14:00:00 19.9 9 Este 17 Este 0 -- -- 34
2018-05-16 13:00:00 18.9 8 Sudeste 20 Sur 0 -- -- 35
2018-05-16 12:00:00 17.3 8 Sur 15 Sudeste 0 -- -- 34
2018-05-16 11:00:00 15.4 7 Sudeste 11 Sudeste 0 -- -- 44
2018-05-16 10:00:00 13.4 4 Sur 9 Sur 0 -- -- 49
2018-05-16 09:00:00 9.1 2 Sur 7 Norte 0 -- -- 64
2018-05-16 08:00:00 5.3 0 Calma 8 Noroeste 0 -- -- 74
2018-05-16 07:00:00 2.8 0 Calma 10 Este 0 -- -- 76
2018-05-16 06:00:00 4.7 0 Calma 10 Norte 0 -- -- 70
2018-05-16 05:00:00 4 5 Norte 6 Norte 0 -- -- 72
2018-05-16 04:00:00 6 6 Norte 8 Norte 0 -- -- 66
2018-05-16 03:00:00 8.2 5 Sudoeste 15 Sudoeste 0 -- -- 57
2018-05-16 02:00:00 9.8 11 Sudoeste 16 Sudoeste 0 -- -- 52
2018-05-16 01:00:00 10.1 10 Oeste 12 Sudoeste 0 -- -- 56
2018-05-16 00:00:00 11.3 4 Sudoeste 9 Oeste 0 -- -- 53
2018-05-15 23:00:00 11.8 6 Nordeste 17 Nordeste 0 -- -- 52
2018-05-15 22:00:00 13.9 12 Nordeste 23 Nordeste 0 -- -- 48
2018-05-15 21:00:00 18.2 16 Nordeste 26 Nordeste 0 -- -- 35
2018-05-15 20:00:00 22.1 9 Sudeste 17 Sur 0 -- -- 26
2018-05-15 19:00:00 22.5 9 Sudeste 24 Sudeste 0 -- -- 27
2018-05-15 18:00:00 22.3 8 Sudeste 18 Sudeste 0 -- -- 24
2018-05-15 17:00:00 21.3 8 Sur 26 Sudoeste 0 -- -- 24
2018-05-15 16:00:00 20.5 13 Sur 24 Sur 0 -- -- 25
2018-05-15 15:00:00 20 10 Sur 26 Sur 0 -- -- 25
2018-05-15 14:00:00 18.9 9 Sur 19 Sudeste 0 -- -- 28
2018-05-15 13:00:00 17.7 8 Sudeste 17 Sur 0 -- -- 28
2018-05-15 12:00:00 15.6 7 Sur 15 Sur 0 -- -- 27
2018-05-15 11:00:00 13.6 8 Sur 15 Sur 0 -- -- 36
2018-05-15 10:00:00 12.1 3 Sudoeste 6 Sur 0 -- -- 49
2018-05-15 09:00:00 8.1 5 Norte 7 Norte 0 -- -- 56
2018-05-15 08:00:00 3.4 0 Calma 5 Norte 0 -- -- 73
2018-05-15 07:00:00 -0.2 2 Norte 10 Norte 0 -- -- 87
2018-05-15 06:00:00 0.5 5 Este 6 Este 0 -- -- 81
2018-05-15 05:00:00 4.6 7 Oeste 13 Oeste 0 -- -- 68
2018-05-15 04:00:00 4 3 Oeste 6 Nordeste 0 -- -- 68
2018-05-15 03:00:00 4.3 5 Nordeste 8 Nordeste 0 -- -- 64
2018-05-15 02:00:00 4.5 6 Norte 10 Este 0 -- -- 64
2018-05-15 01:00:00 6.9 7 Norte 9 Norte 0 -- -- 48
2018-05-15 00:00:00 6.5 3 Noroeste 15 Norte 0 -- -- 53
2018-05-14 23:00:00 7.7 15 Norte 25 Norte 0 -- -- 60
2018-05-14 22:00:00 10.5 19 Norte 28 Nordeste 0 -- -- 57
2018-05-14 21:00:00 14 22 Nordeste 37 Nordeste 0 -- -- 44
2018-05-14 20:00:00 17.3 19 Nordeste 30 Nordeste 0 -- -- 33
2018-05-14 19:00:00 18.2 18 Nordeste 32 Nordeste 0 -- -- 34
2018-05-14 18:00:00 19.3 17 Nordeste 34 Nordeste 0 -- -- 32
2018-05-14 17:00:00 18.8 16 Nordeste 28 Nordeste 0 -- -- 35
2018-05-14 16:00:00 18.5 17 Norte 31 Nordeste 0 -- -- 36
2018-05-14 15:00:00 17.4 14 Nordeste 33 Nordeste 0 -- -- 41
2018-05-14 14:00:00 16.4 15 Nordeste 24 Nordeste 0.2 -- -- 44
2018-05-14 13:00:00 13.9 12 Nordeste 25 Norte 0 -- -- 72
2018-05-14 12:00:00 10.5 14 Nordeste 27 Nordeste 1 -- -- 89
2018-05-14 11:00:00 12.6 13 Noroeste 26 Noroeste 0 -- -- 69
2018-05-14 10:00:00 11.4 18 Noroeste 31 Noroeste 0 -- -- 74
2018-05-14 09:00:00 11 19 Noroeste 32 Noroeste 0 -- -- 74
2018-05-14 08:00:00 8.5 16 Noroeste 32 Noroeste 0 -- -- 84
2018-05-14 07:00:00 8 11 Noroeste 28 Oeste 0 -- -- 85
2018-05-14 06:00:00 7.5 11 Noroeste 24 Oeste 0 -- -- 87
2018-05-14 05:00:00 6.8 11 Noroeste 28 Oeste 0 -- -- 89
2018-05-14 04:00:00 6.9 17 Oeste 30 Oeste 0 -- -- 87
2018-05-14 03:00:00 6.7 12 Oeste 25 Oeste 0 -- -- 86
2018-05-14 02:00:00 6.9 9 Noroeste 20 Oeste 0 -- -- 84
2018-05-14 01:00:00 6.9 10 Oeste 23 Noroeste 0 -- -- 85
2018-05-11 20:00:00 19.4 13 Noroeste 26 Noroeste 0 -- -- 34
2018-05-11 19:00:00 21.4 15 Norte 28 Norte 0 -- -- 29
2018-05-11 18:00:00 21.1 8 Norte 22 Norte 0 -- -- 38
2018-05-11 17:00:00 20.2 15 Norte 22 Norte 0 -- -- 40
2018-05-11 16:00:00 19.9 7 Sudeste 16 Nordeste 0 -- -- 42
2018-05-11 15:00:00 19.5 12 Nordeste 21 Nordeste 0 -- -- 44
2018-05-11 14:00:00 17.1 5 Sur 16 Sur 0 -- -- 51
2018-05-11 13:00:00 16.2 8 Sur 15 Sudeste 0 -- -- 54
2018-05-11 12:00:00 14.4 4 Sudoeste 15 Sudoeste 0 -- -- 55
2018-05-11 11:00:00 12.1 8 Sur 12 Sur 0 -- -- 61
2018-05-11 10:00:00 12.1 3 Sur 8 Nordeste 0 -- -- 61
2018-05-11 09:00:00 9.8 3 Sudeste 8 Norte 0 -- -- 69
2018-05-11 08:00:00 5.3 4 Norte 9 Norte 0 -- -- 83
2018-05-11 07:00:00 3.1 3 Este 6 Nordeste 0 -- -- 80
2018-05-11 06:00:00 4.4 3 Oeste 7 Norte 0 -- -- 82
2018-05-11 05:00:00 6.2 5 Norte 10 Norte 0 -- -- 75
2018-05-11 04:00:00 6 8 Norte 10 Norte 0 -- -- 77
2018-05-11 03:00:00 6.6 8 Norte 9 Norte 0 -- -- 73
2018-05-11 02:00:00 8.6 5 Norte 9 Norte 0 -- -- 65
2018-05-11 01:00:00 9.7 4 Norte 5 Norte 0 -- -- 63
2018-05-11 00:00:00 10.9 0 Calma 5 Sudeste 0 -- -- 58
2018-05-10 23:00:00 11.7 5 Sur 13 Sur 0 -- -- 56
2018-05-10 22:00:00 13.4 11 Sur 23 Sur 0 -- -- 52
2018-05-10 21:00:00 15.8 18 Sur 29 Sur 0 -- -- 45
2018-05-10 20:00:00 18.4 17 Sur 25 Sur 0 -- -- 42
2018-05-10 19:00:00 19.1 15 Sudeste 30 Sudeste 0 -- -- 38
2018-05-10 18:00:00 19.3 14 Sur 24 Sur 0 -- -- 39
2018-05-10 17:00:00 19 13 Sudeste 25 Sudeste 0 -- -- 39
2018-05-10 16:00:00 18.4 10 Sur 24 Sur 0 -- -- 38
2018-05-10 15:00:00 17.9 10 Sur 22 Sur 0 -- -- 40
2018-05-10 14:00:00 16.1 11 Sur 22 Sur 0 -- -- 43
2018-05-10 13:00:00 15.9 10 Sudeste 20 Este 0 -- -- 42
2018-05-10 12:00:00 15.7 6 Este 21 Este 0 -- -- 45
2018-05-10 11:00:00 14.5 9 Este 22 Nordeste 0 -- -- 47
2018-05-10 10:00:00 12.8 9 Nordeste 15 Norte 0 -- -- 55
2018-05-10 09:00:00 10.4 2 Sur 12 Norte 0 -- -- 68
2018-05-10 08:00:00 5.2 9 Norte 14 Norte 0 -- -- 87
2018-05-10 07:00:00 4.9 5 Noroeste 16 Noroeste 0 -- -- 87
2018-05-10 06:00:00 6.5 10 Noroeste 18 Oeste 0 -- -- 81
2018-05-10 05:00:00 6.3 3 Norte 15 Noroeste 0 -- -- 80
2018-05-10 04:00:00 7.8 8 Noroeste 22 Noroeste 0 -- -- 73
2018-05-10 03:00:00 8.4 12 Noroeste 26 Noroeste 0 -- -- 66
2018-05-10 02:00:00 8.7 14 Norte 27 Norte 0 -- -- 59
2018-05-10 01:00:00 9.5 7 Norte 18 Noroeste 0 -- -- 59
2018-05-10 00:00:00 11.2 6 Oeste 24 Noroeste 0 -- -- 56
2018-05-09 23:00:00 11.7 12 Noroeste 31 Noroeste 0 -- -- 59
2018-05-09 22:00:00 13.3 9 Noroeste 33 Oeste 0 -- -- 51
2018-05-09 21:00:00 14.3 17 Noroeste 35 Oeste 0 -- -- 55
2018-05-09 20:00:00 16 16 Noroeste 38 Noroeste 0 -- -- 47
2018-05-09 19:00:00 16.9 23 Noroeste 38 Noroeste 0 -- -- 54
2018-05-09 18:00:00 19.8 25 Noroeste 40 Noroeste 0 -- -- 47
2018-05-09 17:00:00 22.4 16 Noroeste 35 Noroeste 0 -- -- 31
2018-05-09 16:00:00 23.8 9 Oeste 23 Oeste 0 -- -- 29
2018-05-09 15:00:00 21.2 15 Sur 28 Sur 0 -- -- 45
2018-05-09 14:00:00 19.8 14 Sur 26 Sur 0 -- -- 51
2018-05-09 13:00:00 18.5 10 Sudeste 24 Sudeste 0 -- -- 54
2018-05-09 12:00:00 17 12 Sur 20 Sur 0 -- -- 58
2018-05-09 11:00:00 15.1 11 Sur 17 Sur 0 -- -- 63
2018-05-09 10:00:00 13.7 7 Sur 12 Sudoeste 0 -- -- 70
2018-05-09 09:00:00 12 2 Sudoeste 6 Norte 0 -- -- 75
2018-05-09 08:00:00 7 6 Norte 6 Norte 0 -- -- 92
2018-05-09 07:00:00 7.7 3 Nordeste 8 Norte 0 -- -- 88
2018-05-09 06:00:00 7.8 2 Nordeste 5 Norte 0 -- -- 87
2018-05-09 05:00:00 8.8 4 Norte 9 Norte 0 -- -- 80
2018-05-09 04:00:00 7.2 6 Norte 8 Norte 0 -- -- 84
2018-05-09 03:00:00 9.2 0 Calma 9 Sudoeste 0 -- -- 78
2018-05-09 02:00:00 11.3 8 Sudoeste 11 Sudoeste 0 -- -- 62
2018-05-09 01:00:00 10.7 4 Sur 7 Sur 0 -- -- 59
2018-05-09 00:00:00 12.4 4 Sur 12 Nordeste 0 -- -- 52
2018-05-08 23:00:00 13.6 11 Nordeste 19 Nordeste 0 -- -- 47
2018-05-08 22:00:00 14.7 7 Nordeste 21 Este 0 -- -- 48
2018-05-08 21:00:00 19.3 12 Nordeste 30 Nordeste 0 -- -- 45
2018-05-08 20:00:00 21.6 22 Nordeste 32 Norte 0 -- -- 40
2018-05-08 19:00:00 23.3 24 Nordeste 36 Norte 0 -- -- 38
2018-05-08 18:00:00 22.4 16 Nordeste 26 Nordeste 0 -- -- 45
2018-05-08 17:00:00 24.7 15 Nordeste 27 Nordeste 0 -- -- 38
2018-05-08 16:00:00 26.6 11 Noroeste 23 Sudoeste 0 -- -- 25
2018-05-08 15:00:00 24.7 14 Oeste 25 Oeste 0 -- -- 28
2018-05-08 14:00:00 24.4 12 Oeste 22 Oeste 0 -- -- 31
2018-05-08 13:00:00 23.1 6 Sur 18 Sur 0 -- -- 49
2018-05-08 12:00:00 22.1 9 Sudeste 16 Sur 0 -- -- 53
2018-05-08 11:00:00 20.6 6 Sudeste 11 Sur 0 -- -- 56
2018-05-08 10:00:00 18.5 3 Sur 5 Sur 0 -- -- 65
2018-05-08 09:00:00 15.5 0 Calma 6 Norte 0 -- -- 69
2018-05-08 08:00:00 10.7 3 Nordeste 10 Norte 0 -- -- 88
2018-05-08 07:00:00 10.8 2 Sudeste 9 Noroeste 0 -- -- 83
2018-05-08 06:00:00 12.2 2 Noroeste 12 Norte 0 -- -- 80
2018-05-08 05:00:00 11.8 10 Norte 15 Norte 0 -- -- 82
2018-05-08 04:00:00 11.7 12 Norte 15 Norte 0 -- -- 85
2018-05-08 03:00:00 12.8 6 Norte 15 Sudoeste 0 -- -- 78
2018-05-08 02:00:00 15.4 9 Oeste 15 Oeste 0 -- -- 71
2018-05-08 01:00:00 16.1 4 Sudeste 12 Sudeste 0 -- -- 67
2018-05-08 00:00:00 16.9 5 Norte 9 Nordeste 0 -- -- 65
2018-05-07 23:00:00 17.6 8 Norte 14 Norte 0 -- -- 62
2018-05-07 22:00:00 17.6 11 Norte 14 Norte 0 -- -- 60
2018-05-07 21:00:00 18.3 8 Norte 16 Nordeste 0 -- -- 59
2018-05-07 20:00:00 20 13 Nordeste 21 Nordeste 0 -- -- 52
2018-05-07 19:00:00 20.3 17 Nordeste 27 Nordeste 0 -- -- 52
2018-05-07 18:00:00 24 10 Este 19 Este 0 -- -- 38
2018-05-07 17:00:00 25.2 5 Este 18 Norte 0 -- -- 35
2018-05-07 16:00:00 23.9 6 Sudeste 19 Sudeste 0 -- -- 36
2018-05-07 15:00:00 25.2 9 Sudeste 19 Sur 0 -- -- 36
2018-05-07 14:00:00 24 8 Sur 18 Sudoeste 0 -- -- 36
2018-05-07 13:00:00 23.4 5 Sur 13 Sudeste 0 -- -- 42
2018-05-07 12:00:00 22.3 7 Sudeste 15 Sudeste 0 -- -- 47
2018-05-07 11:00:00 21.2 4 Sudeste 10 Sudeste 0 -- -- 50
2018-05-07 10:00:00 19.8 4 Este 9 Este 0 -- -- 53
2018-05-07 09:00:00 16.1 3 Norte 6 Norte 0 -- -- 69
2018-05-07 08:00:00 10.1 2 Oeste 10 Noroeste 0 -- -- 83
2018-05-07 07:00:00 7.9 6 Norte 10 Noroeste 0 -- -- 89
2018-05-07 06:00:00 10 5 Noroeste 9 Norte 0 -- -- 86
2018-05-07 05:00:00 11.1 8 Noroeste 12 Noroeste 0 -- -- 81
2018-05-07 04:00:00 12.1 10 Norte 14 Norte 0 -- -- 75
2018-05-07 03:00:00 11.7 10 Norte 13 Norte 0 -- -- 74
2018-05-07 02:00:00 12.4 9 Norte 15 Nordeste 0 -- -- 68
2018-05-07 01:00:00 10.1 10 Norte 13 Norte 0 -- -- 76
2018-05-07 00:00:00 15.9 3 Oeste 5 Norte 0 -- -- 55
2018-05-06 23:00:00 16.7 4 Nordeste 6 Sudeste 0 -- -- 53
2018-05-06 22:00:00 18.6 4 Este 6 Sudeste 0 -- -- 47
2018-05-06 21:00:00 20.3 5 Sudeste 11 Sudeste 0 -- -- 42
2018-05-06 20:00:00 24.3 4 Sur 10 Sur 0 -- -- 34
2018-05-06 19:00:00 24.3 5 Sur 13 Sudeste 0 -- -- 35
2018-05-06 18:00:00 23.9 8 Sur 19 Sudeste 0 -- -- 38
2018-05-06 17:00:00 22.9 13 Sudeste 24 Sudeste 0 -- -- 41
2018-05-06 16:00:00 22.2 9 Sudeste 21 Sudeste 0 -- -- 45
2018-05-06 15:00:00 21.7 5 Sur 24 Sur 0 -- -- 47
2018-05-06 14:00:00 21 6 Sudeste 21 Sur 0 -- -- 50
2018-05-06 13:00:00 19.9 7 Sudeste 21 Este 0 -- -- 54
2018-05-06 12:00:00 18.7 9 Este 17 Este 0 -- -- 56
2018-05-06 11:00:00 17 8 Este 15 Este 0 -- -- 59
2018-05-06 10:00:00 16 5 Sudeste 10 Sur 0 -- -- 63
2018-05-06 09:00:00 14.5 2 Sudoeste 8 Noroeste 0 -- -- 67
2018-05-06 08:00:00 10 6 Noroeste 8 Noroeste 0 -- -- 82
2018-05-06 07:00:00 9.4 3 Norte 8 Norte 0 -- -- 81
2018-05-06 06:00:00 9.9 4 Nordeste 9 Nordeste 0 -- -- 77
2018-05-06 05:00:00 9.8 3 Norte 8 Norte 0 -- -- 78
2018-05-06 04:00:00 9.1 4 Nordeste 11 Nordeste 0 -- -- 82
2018-05-06 03:00:00 8.6 4 Noroeste 8 Este 0 -- -- 84
2018-05-06 02:00:00 11.7 4 Oeste 9 Oeste 0 -- -- 73
2018-05-06 01:00:00 12.8 3 Noroeste 9 Este 0 -- -- 70
2018-05-06 00:00:00 13.7 5 Este 15 Sur 0 -- -- 65
2018-05-05 23:00:00 13.9 6 Este 21 Sudeste 0 -- -- 64
2018-05-05 22:00:00 15.1 13 Este 23 Este 0 -- -- 59
2018-05-05 21:00:00 17.4 10 Sudeste 25 Sudeste 0 -- -- 55
2018-05-05 20:00:00 19.9 13 Sur 24 Sur 0 -- -- 49
2018-05-05 19:00:00 20.7 15 Sudeste 30 Sur 0 -- -- 45
2018-05-05 18:00:00 21 18 Sur 27 Sur 0 -- -- 45
2018-05-05 17:00:00 21.2 16 Sur 26 Sudeste 0 -- -- 44
2018-05-05 16:00:00 20.4 11 Sudeste 26 Sur 0 -- -- 46
2018-05-05 15:00:00 19.5 13 Sudeste 22 Este 0 -- -- 43
2018-05-05 14:00:00 18.2 12 Sur 21 Sur 0 -- -- 46
2018-05-05 13:00:00 16.8 11 Sur 19 Sur 0 -- -- 47
2018-05-05 12:00:00 15.5 7 Sur 15 Sudeste 0 -- -- 50
2018-05-05 11:00:00 13.8 6 Sur 15 Sudoeste 0 -- -- 50
2018-05-05 10:00:00 12.6 4 Sur 8 Norte 0 -- -- 61
2018-05-05 09:00:00 8.4 5 Norte 9 Norte 0 -- -- 72
2018-05-05 08:00:00 3.1 6 Norte 10 Norte 0 -- -- 91
2018-05-05 07:00:00 2.6 6 Norte 8 Norte 0 -- -- 90
2018-05-05 06:00:00 3 0 Calma 6 Norte 0 -- -- 89
2018-05-05 05:00:00 2.8 0 Calma 10 Norte 0 -- -- 91
2018-05-05 04:00:00 3.9 5 Nordeste 9 Norte 0 -- -- 88
2018-05-05 03:00:00 3 6 Norte 8 Norte 0 -- -- 88
2018-05-05 02:00:00 6.6 6 Oeste 12 Sudoeste 0 -- -- 74
2018-05-05 01:00:00 7.4 11 Sudoeste 14 Sudoeste 0 -- -- 73
2018-05-05 00:00:00 8 6 Sudoeste 16 Sur 0 -- -- 72
2018-05-04 23:00:00 9.3 9 Sur 19 Sur 0 -- -- 69
2018-05-04 22:00:00 11.8 10 Sur 18 Sur 0 -- -- 59
2018-05-04 21:00:00 14 13 Sur 26 Sur 0 -- -- 52
2018-05-04 20:00:00 16.9 14 Sur 24 Sur 0 -- -- 44
2018-05-04 19:00:00 18.9 8 Sudeste 21 Sudeste 0 -- -- 35
2018-05-04 18:00:00 19.5 8 Este 17 Sur 0 -- -- 33
2018-05-04 17:00:00 17.7 10 Sudoeste 24 Sudeste 0 -- -- 38
2018-05-04 16:00:00 16.2 9 Sur 27 Sudeste 0 -- -- 38
2018-05-04 15:00:00 15.2 13 Sudeste 23 Sur 0 -- -- 42
2018-05-04 14:00:00 14.4 12 Sudeste 20 Sudeste 0 -- -- 43
2018-05-04 13:00:00 13.1 10 Sudeste 25 Sur 0 -- -- 44
2018-05-04 12:00:00 12.4 9 Sur 17 Sudeste 0 -- -- 44
2018-05-04 11:00:00 11 6 Sudeste 12 Sudeste 0 -- -- 44
2018-05-04 10:00:00 8.2 7 Sur 12 Sur 0 -- -- 61
2018-05-04 09:00:00 3.6 7 Sur 13 Sur 0 -- -- 74
2018-05-04 08:00:00 0.1 4 Sur 10 Sudeste 0 -- -- 85
2018-05-04 07:00:00 -1 3 Norte 14 Sudeste 0 -- -- 89
2018-05-04 06:00:00 -0.4 6 Norte 12 Sudeste 0 -- -- 85
2018-05-04 05:00:00 2.4 5 Oeste 13 Oeste 0 -- -- 74
2018-05-04 04:00:00 3.4 7 Oeste 11 Oeste 0 -- -- 71
2018-05-04 03:00:00 3.5 3 Oeste 8 Oeste 0 -- -- 71
2018-05-04 02:00:00 3.9 7 Oeste 10 Oeste 0 -- -- 74
2018-05-04 01:00:00 4.9 3 Sudoeste 9 Oeste 0 -- -- 71
2018-05-04 00:00:00 5.3 0 Calma 14 Norte 0 -- -- 67
2018-05-03 23:00:00 6.4 9 Norte 23 Nordeste 0 -- -- 63
2018-05-03 22:00:00 7.2 19 Nordeste 32 Nordeste 0 -- -- 63
2018-05-03 21:00:00 9.8 21 Nordeste 36 Nordeste 0 -- -- 55
2018-05-03 20:00:00 12.7 25 Nordeste 42 Nordeste 0 -- -- 46
2018-05-03 19:00:00 13.2 30 Nordeste 45 Nordeste 0 -- -- 46
2018-05-03 18:00:00 15.6 26 Nordeste 43 Nordeste 0 -- -- 42
2018-05-03 17:00:00 15.9 28 Nordeste 45 Nordeste 0 -- -- 40
2018-05-03 16:00:00 16.9 19 Nordeste 36 Nordeste 0 -- -- 33
2018-05-03 15:00:00 16 18 Nordeste 35 Nordeste 0 -- -- 31
2018-05-03 14:00:00 14.9 15 Norte 27 Noroeste 0 -- -- 38
2018-05-03 13:00:00 13.7 12 Norte 21 Nordeste 0 -- -- 50
2018-05-03 12:00:00 12.6 9 Norte 22 Nordeste 0 -- -- 51
2018-05-03 11:00:00 11.7 14 Norte 26 Noroeste 0 -- -- 56
2018-05-03 10:00:00 10.4 15 Norte 26 Norte 0 -- -- 65
2018-05-03 09:00:00 8.8 12 Norte 22 Norte 0 -- -- 73
2018-05-03 08:00:00 6.4 12 Noroeste 18 Noroeste 0 -- -- 88
2018-05-03 07:00:00 6 11 Noroeste 19 Noroeste 0 -- -- 87
2018-05-03 06:00:00 6.1 8 Noroeste 18 Noroeste 0 -- -- 89
2018-05-03 05:00:00 6.6 9 Noroeste 18 Noroeste 0 -- -- 92
2018-05-03 04:00:00 6.9 9 Noroeste 18 Noroeste 0 -- -- 91
2018-05-03 03:00:00 8 10 Noroeste 22 Noroeste 0 -- -- 88
2018-05-03 02:00:00 8.3 13 Noroeste 20 Noroeste 0 -- -- 90
2018-05-03 01:00:00 8.1 4 Nordeste 23 Noroeste 0 -- -- 89
2018-05-03 00:00:00 8.5 16 Noroeste 24 Oeste 0 -- -- 87
2018-05-02 23:00:00 8.4 11 Noroeste 24 Noroeste 0 -- -- 86
2018-05-02 22:00:00 8.8 10 Noroeste 22 Oeste 0 -- -- 84
2018-05-02 21:00:00 10 9 Noroeste 27 Noroeste 0 -- -- 78
2018-05-02 20:00:00 11 17 Noroeste 32 Noroeste 0 -- -- 74
2018-05-02 19:00:00 13.1 19 Noroeste 36 Noroeste 0 -- -- 65
2018-05-02 18:00:00 12.7 21 Noroeste 34 Noroeste 0 -- -- 65
2018-05-02 17:00:00 11.9 20 Noroeste 36 Noroeste 0 -- -- 68
2018-05-02 16:00:00 11.4 17 Noroeste 33 Noroeste 0.4 -- -- 72
2018-05-02 15:00:00 10.6 11 Oeste 27 Oeste 0 -- -- 74
2018-05-02 14:00:00 10.7 14 Oeste 29 Oeste 0 -- -- 68
2018-05-02 13:00:00 10.3 17 Oeste 32 Oeste 0 -- -- 68
2018-05-02 12:00:00 10.8 17 Oeste 33 Oeste 0 -- -- 66
2018-05-02 11:00:00 9 16 Noroeste 31 Noroeste 0 -- -- 69
2018-05-02 10:00:00 7.8 7 Oeste 16 Sudoeste 0 -- -- 71
2018-05-02 09:00:00 4.7 8 Norte 18 Norte 0 -- -- 79
2018-05-02 08:00:00 4.1 7 Norte 13 Norte 0 -- -- 77
2018-05-02 07:00:00 4.7 6 Norte 17 Noroeste 0 -- -- 69
2018-05-02 06:00:00 5.4 8 Norte 21 Norte 0 -- -- 69
2018-05-02 05:00:00 5.9 12 Norte 16 Norte 0 -- -- 69
2018-05-02 04:00:00 6.3 11 Noroeste 18 Noroeste 0 -- -- 65
2018-05-02 03:00:00 6.8 0 Calma 14 Noroeste 0 -- -- 65
2018-05-02 02:00:00 7 10 Noroeste 22 Noroeste 0 -- -- 64
2018-05-02 01:00:00 7.6 11 Noroeste 26 Oeste 0 -- -- 60
2018-05-02 00:00:00 8.2 11 Noroeste 22 Oeste 0 -- -- 56
2018-05-01 23:00:00 8.4 10 Noroeste 17 Noroeste 0 -- -- 48
2018-05-01 22:00:00 9.2 11 Noroeste 21 Oeste 0 -- -- 45
2018-05-01 21:00:00 10.2 11 Noroeste 22 Noroeste 0 -- -- 43
2018-05-01 20:00:00 11.3 14 Noroeste 23 Noroeste 0 -- -- 43
2018-05-01 19:00:00 12.2 6 Noroeste 23 Norte 0 -- -- 41
2018-05-01 18:00:00 12.9 9 Noroeste 18 Sudeste 0 -- -- 43
2018-05-01 17:00:00 12.3 12 Sudeste 30 Sudeste 0 -- -- 42
2018-05-01 16:00:00 13 15 Sur 32 Sur 0 -- -- 42
2018-05-01 15:00:00 11.8 17 Sur 32 Sudeste 0 -- -- 49
2018-05-01 14:00:00 10.7 14 Sur 28 Sur 0 -- -- 53
2018-05-01 13:00:00 9.7 14 Sur 27 Sur 0 -- -- 54
2018-05-01 12:00:00 9.1 15 Sudeste 26 Sudeste 0 -- -- 58
2018-05-01 11:00:00 7.5 12 Sur 19 Sudoeste 0 -- -- 62
2018-05-01 10:00:00 6.6 4 Sur 8 Sur 0 -- -- 67
2018-05-01 09:00:00 3.9 5 Norte 8 Norte 0 -- -- 76
2018-05-01 08:00:00 -0.3 0 Calma 5 Sur 0 -- -- 92
2018-05-01 07:00:00 -1.2 2 Sudoeste 8 Norte 0 -- -- 95
2018-05-01 06:00:00 -1.3 6 Norte 7 Norte 0 -- -- 94
2018-05-01 05:00:00 -0.7 4 Sudeste 8 Norte 0 -- -- 89
2018-05-01 04:00:00 0.6 4 Norte 8 Nordeste 0 -- -- 89
2018-05-01 03:00:00 2 5 Noroeste 9 Norte 0 -- -- 85
2018-05-01 02:00:00 3 3 Norte 10 Noroeste 0 -- -- 77
2018-05-01 01:00:00 3.3 7 Norte 9 Norte 0 -- -- 79
2018-05-01 00:00:00 3.6 0 Calma 6 Nordeste 0 -- -- 74
2018-04-30 23:00:00 3.9 5 Nordeste 15 Norte 0 -- -- 72
2018-04-30 22:00:00 5.4 10 Norte 23 Norte 0 -- -- 65
2018-04-30 21:00:00 7.7 15 Norte 29 Norte 0 -- -- 56
2018-04-30 20:00:00 9.1 15 Norte 22 Norte 0 -- -- 53
2018-04-30 19:00:00 10.1 17 Norte 36 Norte 0 -- -- 50
2018-04-30 18:00:00 8.9 15 Noroeste 38 Norte 0 -- -- 60
2018-04-30 17:00:00 11.8 22 Noroeste 40 Noroeste 0 -- -- 47
2018-04-30 16:00:00 12.3 19 Noroeste 37 Noroeste 0 -- -- 47
2018-04-30 15:00:00 10.5 21 Noroeste 36 Noroeste 0 -- -- 55
2018-04-30 14:00:00 10.3 19 Noroeste 34 Noroeste 0 -- -- 56
2018-04-30 13:00:00 8.1 13 Noroeste 31 Oeste 0 -- -- 62
2018-04-30 12:00:00 8.3 9 Noroeste 21 Noroeste 0 -- -- 63
2018-04-30 11:00:00 5 9 Oeste 20 Oeste 0 -- -- 73
2018-04-30 10:00:00 4.2 13 Oeste 22 Oeste 0 -- -- 74
2018-04-30 09:00:00 3.8 10 Oeste 16 Sudoeste 0 -- -- 77
2018-04-30 08:00:00 2.1 8 Oeste 13 Oeste 0 -- -- 83
2018-04-30 07:00:00 0.6 3 Sudoeste 8 Sudoeste 0 -- -- 91
2018-04-30 06:00:00 1.4 6 Oeste 14 Noroeste 0 -- -- 86
2018-04-30 05:00:00 1.4 9 Oeste 18 Oeste 0 -- -- 81
2018-04-30 04:00:00 1.4 12 Noroeste 23 Oeste 0 -- -- 82
2018-04-30 03:00:00 1 9 Noroeste 20 Noroeste 0 -- -- 85
2018-04-30 02:00:00 1.5 11 Noroeste 22 Oeste 0 -- -- 82
2018-04-30 01:00:00 1.5 9 Noroeste 21 Oeste 0 -- -- 83
2018-04-30 00:00:00 2.2 9 Oeste 23 Oeste 0 -- -- 83
2018-04-29 23:00:00 2.9 13 Oeste 30 Oeste 0.2 -- -- 81
2018-04-29 22:00:00 3.5 14 Oeste 31 Noroeste 0 -- -- 78
2018-04-29 21:00:00 4.4 15 Noroeste 35 Oeste 0 -- -- 74
2018-04-29 20:00:00 6 17 Oeste 36 Oeste 0 -- -- 70
2018-04-29 19:00:00 7.2 21 Oeste 38 Oeste 0 -- -- 65
2018-04-29 18:00:00 7.3 22 Oeste 41 Noroeste 0 -- -- 68
2018-04-29 17:00:00 5.5 15 Oeste 44 Noroeste 0 -- -- 81
2018-04-29 16:00:00 7.6 5 Sur 12 Noroeste 0.2 -- -- 76
2018-04-29 15:00:00 2.5 12 Sudoeste 42 Sudoeste 3.6 -- -- 93
2018-04-29 14:00:00 7.3 7 Sudeste 16 Sur 0 -- -- 80
2018-04-29 13:00:00 5.3 15 Sur 22 Sur 0.2 -- -- 89
2018-04-29 12:00:00 4.6 13 Sudoeste 20 Sur 0.2 -- -- 91
2018-04-29 11:00:00 6.5 5 Nordeste 10 Nordeste 0 -- -- 81
2018-04-29 10:00:00 6.6 3 Nordeste 6 Nordeste 0 -- -- 77
2018-04-29 09:00:00 5.1 4 Norte 7 Noroeste 0 -- -- 86
2018-04-29 08:00:00 2.5 3 Noroeste 6 Oeste 0 -- -- 95
2018-04-29 07:00:00 1.8 3 Sur 7 Noroeste 0 -- -- 95
2018-04-29 06:00:00 2.3 9 Noroeste 13 Norte 0 -- -- 95
2018-04-29 05:00:00 2.3 8 Norte 10 Norte 0 -- -- 93
2018-04-29 04:00:00 3 4 Norte 5 Nordeste 0 -- -- 93
2018-04-29 03:00:00 2.9 3 Nordeste 6 Norte 0 -- -- 93
2018-04-29 02:00:00 4.6 7 Oeste 12 Oeste 0 -- -- 84
2018-04-29 01:00:00 4.5 7 Oeste 20 Norte 0 -- -- 85
2018-04-29 00:00:00 4.4 7 Norte 20 Noroeste 0 -- -- 90
2018-04-28 23:00:00 4.6 13 Norte 24 Norte 0 -- -- 91
2018-04-28 22:00:00 5.2 17 Norte 21 Norte 0 -- -- 91
2018-04-28 21:00:00 6.3 6 Sudeste 36 Sudoeste 0.8 -- -- 81
2018-04-28 20:00:00 7.5 10 Sudeste 22 Sudeste 0.8 -- -- 79
2018-04-28 19:00:00 9.8 8 Nordeste 17 Nordeste 0 -- -- 70
2018-04-28 18:00:00 10 14 Norte 21 Norte 0.4 -- -- 70
2018-04-28 17:00:00 6.5 15 Norte 33 Noroeste 1.6 -- -- 87
2018-04-28 16:00:00 7.2 21 Noroeste 35 Noroeste 0 -- -- 77
2018-04-28 15:00:00 10.6 9 Sur 40 Sur 0 -- -- 60
2018-04-28 14:00:00 10.1 24 Sur 34 Sur 0 -- -- 65
2018-04-28 13:00:00 11.3 10 Sudeste 25 Sur 0 -- -- 57
2018-04-28 12:00:00 12 8 Sur 17 Sudeste 0 -- -- 57
2018-04-28 11:00:00 9.7 5 Sur 12 Sudoeste 0 -- -- 65
2018-04-28 10:00:00 10.7 4 Norte 9 Nordeste 0 -- -- 58
2018-04-28 09:00:00 6.1 8 Norte 10 Norte 0 -- -- 75
2018-04-28 08:00:00 5.4 6 Norte 8 Norte 0 -- -- 80
2018-04-28 07:00:00 5.3 2 Norte 5 Nordeste 0 -- -- 78
2018-04-28 06:00:00 5.2 0 Calma 7 Nordeste 0 -- -- 80
2018-04-28 05:00:00 4.6 5 Noroeste 13 Norte 0 -- -- 80
2018-04-28 04:00:00 5.1 13 Norte 21 Norte 0 -- -- 77
2018-04-28 03:00:00 5.6 15 Norte 20 Norte 0 -- -- 76
2018-04-28 02:00:00 5.1 11 Nordeste 15 Norte 0 -- -- 77
2018-04-28 01:00:00 6.3 4 Nordeste 9 Sudeste 0 -- -- 68
2018-04-28 00:00:00 7.3 6 Oeste 14 Nordeste 0 -- -- 63
2018-04-27 23:00:00 7.7 8 Nordeste 25 Noroeste 0 -- -- 59
2018-04-27 22:00:00 9.8 11 Oeste 25 Noroeste 0 -- -- 52
2018-04-27 21:00:00 12 12 Noroeste 28 Noroeste 0 -- -- 46
2018-04-27 20:00:00 13.5 15 Noroeste 31 Noroeste 0 -- -- 43
2018-04-27 19:00:00 16.2 19 Noroeste 36 Norte 0 -- -- 40
2018-04-27 18:00:00 16.8 25 Norte 38 Norte 0 -- -- 39
2018-04-27 17:00:00 17.2 16 Noroeste 35 Noroeste 0 -- -- 41
2018-04-27 16:00:00 17.6 21 Norte 40 Norte 0 -- -- 39
2018-04-27 15:00:00 16.5 20 Norte 34 Norte 0 -- -- 42
2018-04-27 14:00:00 15.2 21 Noroeste 36 Norte 0 -- -- 48
2018-04-27 13:00:00 14.6 18 Noroeste 33 Noroeste 0 -- -- 48
2018-04-27 12:00:00 13.3 19 Oeste 32 Noroeste 0 -- -- 49
2018-04-27 11:00:00 11.1 22 Oeste 37 Oeste 0 -- -- 59
2018-04-27 10:00:00 10.6 12 Oeste 27 Oeste 0 -- -- 67
2018-04-27 09:00:00 11 9 Oeste 25 Oeste 0 -- -- 62
2018-04-27 08:00:00 7.5 13 Oeste 22 Noroeste 0 -- -- 72
2018-04-27 07:00:00 8.2 15 Noroeste 27 Noroeste 0 -- -- 73
2018-04-27 06:00:00 9.4 13 Noroeste 34 Noroeste 0 -- -- 70
2018-04-27 05:00:00 10.3 20 Noroeste 35 Noroeste 0 -- -- 66
2018-04-27 04:00:00 10.4 9 Noroeste 16 Oeste 0 -- -- 59
2018-04-27 03:00:00 11.1 2 Sudeste 26 Noroeste 0 -- -- 62
2018-04-27 02:00:00 12.5 15 Oeste 32 Noroeste 0 -- -- 59
2018-04-27 01:00:00 13.4 13 Noroeste 23 Noroeste 0 -- -- 60
2018-04-27 00:00:00 14.7 14 Noroeste 24 Oeste 0 -- -- 58
2018-04-26 23:00:00 15 12 Noroeste 23 Norte 0 -- -- 59
2018-04-26 22:00:00 16 6 Nordeste 12 Noroeste 0 -- -- 65
2018-04-26 21:00:00 17.8 6 Este 13 Sudeste 0 -- -- 58
2018-04-26 20:00:00 19.1 7 Sudeste 16 Sudeste 0 -- -- 54
2018-04-26 19:00:00 20.3 11 Sudeste 22 Sur 0 -- -- 48
2018-04-26 18:00:00 21.1 12 Sur 23 Sur 0 -- -- 46
2018-04-26 17:00:00 20.1 14 Sur 27 Sudeste 0 -- -- 47
2018-04-26 16:00:00 19.2 11 Sur 23 Sur 0 -- -- 49
2018-04-26 15:00:00 17.8 9 Sur 19 Sur 0 -- -- 51
2018-04-26 14:00:00 16 9 Sur 21 Sur 0 -- -- 55
2018-04-26 13:00:00 15.2 11 Sur 20 Sur 0 -- -- 60
2018-04-26 12:00:00 13.8 7 Sur 18 Sur 0 -- -- 61
2018-04-26 11:00:00 12.3 9 Sur 14 Sur 0 -- -- 67
2018-04-26 10:00:00 11 7 Sur 13 Sur 0 -- -- 75
2018-04-26 09:00:00 7.9 7 Sur 11 Sur 0 -- -- 89
2018-04-26 08:00:00 7.3 5 Sur 6 Sur 0 -- -- 94
2018-04-26 07:00:00 7.3 3 Sudoeste 6 Sudoeste 0 -- -- 94
2018-04-26 06:00:00 6.6 4 Sudoeste 5 Sudoeste 0 -- -- 96
2018-04-26 05:00:00 5.8 4 Nordeste 5 Norte 0 -- -- 94
2018-04-26 04:00:00 8.1 5 Sudoeste 9 Sudoeste 0 -- -- 91
2018-04-26 03:00:00 8.8 4 Sudoeste 9 Sur 0 -- -- 89
2018-04-26 02:00:00 9.5 4 Sudoeste 10 Sur 0 -- -- 86
2018-04-26 01:00:00 9.7 8 Sudoeste 13 Sur 0 -- -- 87
2018-04-26 00:00:00 11.2 6 Sudoeste 21 Sur 0 -- -- 84
2018-04-25 23:00:00 13.2 11 Sudeste 18 Sudeste 0 -- -- 67
2018-04-25 22:00:00 15.6 11 Sudeste 27 Sudeste 0 -- -- 72
2018-04-25 21:00:00 18.4 11 Oeste 29 Noroeste 0 -- -- 47
2018-04-25 20:00:00 21.6 20 Noroeste 33 Norte 0 -- -- 44
2018-04-25 19:00:00 24.8 17 Noroeste 35 Norte 0 -- -- 36
2018-04-25 18:00:00 25.7 20 Noroeste 32 Norte 0 -- -- 22
2018-04-25 17:00:00 26.8 6 Oeste 47 Noroeste 0 -- -- 25
2018-04-25 16:00:00 25.7 9 Sudeste 23 Norte 0 -- -- 28
2018-04-25 15:00:00 24.4 7 Sudeste 19 Sur 0 -- -- 44
2018-04-25 14:00:00 23.4 9 Sudeste 19 Sudeste 0 -- -- 47
2018-04-25 13:00:00 22.8 7 Sur 20 Sudeste 0 -- -- 51
2018-04-25 12:00:00 22.3 7 Sudeste 15 Este 0 -- -- 51
2018-04-25 11:00:00 21.8 5 Este 12 Este 0 -- -- 51
2018-04-25 10:00:00 20.2 3 Norte 6 Nordeste 0 -- -- 57
2018-04-25 09:00:00 14.8 6 Norte 7 Norte 0 -- -- 72
2018-04-25 08:00:00 11.3 3 Sudeste 12 Norte 0 -- -- 81
2018-04-25 07:00:00 10.2 11 Norte 13 Norte 0 -- -- 84
2018-04-25 06:00:00 11 3 Sudeste 10 Nordeste 0 -- -- 83
2018-04-25 05:00:00 11.1 4 Sur 14 Norte 0 -- -- 82
2018-04-25 04:00:00 11.6 8 Norte 13 Noroeste 0 -- -- 83
2018-04-25 03:00:00 13.4 10 Noroeste 12 Noroeste 0 -- -- 79
2018-04-25 02:00:00 12.9 8 Norte 10 Norte 0 -- -- 80
2018-04-25 01:00:00 15.9 3 Sudoeste 12 Nordeste 0 -- -- 68
2018-04-25 00:00:00 15.7 10 Nordeste 21 Nordeste 0 -- -- 69
2018-04-24 23:00:00 18.2 3 Oeste 14 Noroeste 0 -- -- 64
2018-04-24 22:00:00 19.8 9 Oeste 17 Sudoeste 0 -- -- 52
2018-04-24 21:00:00 21.2 9 Sudoeste 13 Sur 0 -- -- 50
2018-04-24 20:00:00 24.6 8 Sur 15 Sur 0 -- -- 41
2018-04-24 19:00:00 25.8 7 Sur 20 Sur 0 -- -- 33
2018-04-24 18:00:00 25.7 10 Sudeste 22 Sur 0 -- -- 33
2018-04-24 17:00:00 26.1 7 Sur 23 Sur 0 -- -- 35
2018-04-24 16:00:00 25.3 10 Sur 23 Sudeste 0 -- -- 36
2018-04-24 15:00:00 24.5 9 Sudeste 21 Sudeste 0 -- -- 41
2018-04-24 14:00:00 23.3 7 Sudeste 16 Sudeste 0 -- -- 45
2018-04-24 13:00:00 22.6 6 Sudeste 15 Sudeste 0 -- -- 50
2018-04-24 12:00:00 22.4 4 Norte 13 Nordeste 0 -- -- 49
2018-04-24 11:00:00 19.8 6 Nordeste 13 Nordeste 0 -- -- 51
2018-04-24 10:00:00 19.4 2 Nordeste 4 Norte 0 -- -- 62
2018-04-24 09:00:00 13.7 3 Sudeste 7 Norte 0 -- -- 71
2018-04-24 08:00:00 9.7 7 Norte 13 Norte 0 -- -- 86
2018-04-24 07:00:00 7.2 6 Norte 10 Oeste 0 -- -- 91
2018-04-24 06:00:00 9.8 4 Norte 8 Oeste 0 -- -- 88
2018-04-24 05:00:00 10.9 0 Calma 12 Norte 0 -- -- 82
2018-04-24 04:00:00 10.3 3 Nordeste 9 Nordeste 0 -- -- 86
2018-04-24 03:00:00 11.3 4 Oeste 9 Sudeste 0 -- -- 83
2018-04-24 02:00:00 12.3 6 Nordeste 12 Norte 0 -- -- 80
2018-04-24 01:00:00 13.7 12 Norte 17 Noroeste 0 -- -- 75
2018-04-24 00:00:00 14.5 13 Norte 18 Norte 0 -- -- 72
2018-04-23 23:00:00 15.1 13 Norte 18 Norte 0 -- -- 72
2018-04-23 22:00:00 17.9 4 Este 15 Sur 0 -- -- 61
2018-04-23 21:00:00 19 11 Sudeste 26 Sudeste 0 -- -- 57
2018-04-23 20:00:00 21.4 17 Sur 31 Sur 0 -- -- 49
2018-04-23 19:00:00 22.9 21 Sur 31 Sur 0 -- -- 44
2018-04-23 18:00:00 24.3 12 Sur 21 Sur 0 -- -- 38
2018-04-23 17:00:00 24.5 8 Sur 21 Sudeste 0 -- -- 40
2018-04-23 16:00:00 23.1 12 Sur 25 Sudeste 0 -- -- 41
2018-04-23 15:00:00 22.5 11 Sur 21 Sudeste 0 -- -- 45
2018-04-23 14:00:00 21.4 10 Sudeste 20 Sudeste 0 -- -- 47
2018-04-23 13:00:00 21.1 5 Sur 14 Sudeste 0 -- -- 46
2018-04-23 12:00:00 20.5 5 Sudeste 12 Sudeste 0 -- -- 52
2018-04-23 11:00:00 19.2 4 Este 9 Nordeste 0 -- -- 57
2018-04-23 10:00:00 15.9 2 Sur 6 Sur 0 -- -- 72
2018-04-23 09:00:00 12.5 2 Oeste 8 Noroeste 0 -- -- 82
2018-04-23 08:00:00 6.9 6 Norte 14 Norte 0 -- -- 95
2018-04-23 07:00:00 8.7 12 Norte 14 Norte 0 -- -- 93
2018-04-23 06:00:00 8.4 9 Norte 11 Noroeste 0 -- -- 95
2018-04-23 05:00:00 7.5 3 Sudeste 8 Norte 0 -- -- 93
2018-04-23 04:00:00 10.1 8 Norte 11 Noroeste 0 -- -- 87
2018-04-23 03:00:00 10.4 8 Noroeste 10 Norte 0 -- -- 86
2018-04-23 02:00:00 10.1 3 Sudoeste 7 Norte 0 -- -- 86
2018-04-23 01:00:00 10.4 5 Nordeste 10 Norte 0 -- -- 86
2018-04-23 00:00:00 10.7 4 Sudoeste 13 Sudeste 0 -- -- 85
2018-04-22 23:00:00 12.5 6 Norte 8 Norte 0 -- -- 80
2018-04-22 22:00:00 14.6 5 Noroeste 6 Noroeste 0 -- -- 69
2018-04-22 21:00:00 15.2 0 Calma 8 Sur 0 -- -- 70
2018-04-22 20:00:00 16.3 7 Sur 17 Sur 0 -- -- 68
2018-04-22 19:00:00 16.6 14 Sur 19 Sur 0 -- -- 66
2018-04-22 18:00:00 17.5 14 Sudeste 25 Sudeste 0 -- -- 60
2018-04-22 17:00:00 18.9 16 Sudeste 24 Sudeste 0 -- -- 55
2018-04-22 16:00:00 19.4 12 Sur 21 Sudeste 0 -- -- 50
2018-04-22 15:00:00 18.6 9 Sur 17 Sudeste 0 -- -- 54
2018-04-22 14:00:00 17.5 5 Sudeste 13 Este 0 -- -- 61
2018-04-22 13:00:00 15.8 4 Sudeste 9 Sur 0 -- -- 62
2018-04-22 12:00:00 15.6 3 Nordeste 8 Sur 0 -- -- 63
2018-04-22 11:00:00 12.8 5 Sur 9 Sudeste 0 -- -- 76
2018-04-22 10:00:00 11.2 3 Sudoeste 9 Norte 0 -- -- 88
2018-04-22 09:00:00 10.5 5 Norte 9 Norte 0 -- -- 87
2018-04-22 08:00:00 9.8 2 Sudoeste 8 Oeste 0 -- -- 85
2018-04-22 07:00:00 9 5 Oeste 12 Norte 0 -- -- 88
2018-04-22 06:00:00 8.7 10 Norte 13 Norte 0 -- -- 89
2018-04-22 05:00:00 8.2 10 Norte 14 Norte 0 -- -- 91
2018-04-22 04:00:00 7.1 5 Nordeste 8 Norte 0 -- -- 89
2018-04-22 03:00:00 8.1 3 Norte 9 Nordeste 0 -- -- 89
2018-04-22 02:00:00 9.3 3 Oeste 8 Noroeste 0 -- -- 85
2018-04-22 01:00:00 10.7 2 Oeste 7 Nordeste 0 -- -- 81
2018-04-22 00:00:00 11.4 5 Norte 9 Norte 0 -- -- 77